sensor_id;sensor_type;location;lat;lon;timestamp;pressure;altitude;pressure_sealevel;temperature;humidity
43770;BME280;6597;52.218;9.882;2022-10-31T00:02:22;101176.88;;;13.52;95.49
43770;BME280;6597;52.218;9.882;2022-10-31T00:04:48;101177.97;;;13.47;95.37
43770;BME280;6597;52.218;9.882;2022-10-31T00:07:15;101168.47;;;13.43;96.09
43770;BME280;6597;52.218;9.882;2022-10-31T00:09:41;101168.66;;;13.38;96.62
43770;BME280;6597;52.218;9.882;2022-10-31T00:12:09;101170.38;;;13.39;96.81
43770;BME280;6597;52.218;9.882;2022-10-31T00:14:36;101164.25;;;13.38;96.86
43770;BME280;6597;52.218;9.882;2022-10-31T00:17:02;101161.75;;;13.35;97.25
43770;BME280;6597;52.218;9.882;2022-10-31T00:19:29;101170.59;;;13.33;96.97
43770;BME280;6597;52.218;9.882;2022-10-31T00:21:55;101172.34;;;13.34;97.50
43770;BME280;6597;52.218;9.882;2022-10-31T00:24:22;101170.59;;;13.33;97.35
43770;BME280;6597;52.218;9.882;2022-10-31T00:26:48;101175.84;;;13.34;96.02
43770;BME280;6597;52.218;9.882;2022-10-31T00:29:16;101176.69;;;13.35;95.69
43770;BME280;6597;52.218;9.882;2022-10-31T00:31:43;101174.97;;;13.34;95.80
43770;BME280;6597;52.218;9.882;2022-10-31T00:34:09;101179.34;;;13.35;94.85
43770;BME280;6597;52.218;9.882;2022-10-31T00:36:36;101179.34;;;13.35;94.44
43770;BME280;6597;52.218;9.882;2022-10-31T00:39:02;101175.84;;;13.34;94.66
43770;BME280;6597;52.218;9.882;2022-10-31T00:41:29;101184.69;;;13.33;94.75
43770;BME280;6597;52.218;9.882;2022-10-31T00:43:56;101187.19;;;13.36;94.66
43770;BME280;6597;52.218;9.882;2022-10-31T00:46:23;101189.75;;;13.38;94.95
43770;BME280;6597;52.218;9.882;2022-10-31T00:48:50;101196.88;;;13.36;94.37
43770;BME280;6597;52.218;9.882;2022-10-31T00:51:17;101197.88;;;13.32;95.06
43770;BME280;6597;52.218;9.882;2022-10-31T00:53:43;101207.75;;;13.27;94.38
43770;BME280;6597;52.218;9.882;2022-10-31T00:56:10;101197.41;;;13.22;94.82
43770;BME280;6597;52.218;9.882;2022-10-31T00:58:36;101205.31;;;13.22;94.39
43770;BME280;6597;52.218;9.882;2022-10-31T01:01:03;101206.34;;;13.18;95.36
43770;BME280;6597;52.218;9.882;2022-10-31T01:03:33;101205.81;;;13.08;94.82
43770;BME280;6597;52.218;9.882;2022-10-31T01:06:01;101213.25;;;12.97;95.13
43770;BME280;6597;52.218;9.882;2022-10-31T01:08:31;101212.81;;;12.86;95.46
43770;BME280;6597;52.218;9.882;2022-10-31T01:11:04;101215.78;;;12.77;95.93
43770;BME280;6597;52.218;9.882;2022-10-31T01:13:31;101219.50;;;12.71;96.57
43770;BME280;6597;52.218;9.882;2022-10-31T01:15:59;101217.13;;;12.64;96.48
43770;BME280;6597;52.218;9.882;2022-10-31T01:18:26;101226.06;;;12.60;96.46
43770;BME280;6597;52.218;9.882;2022-10-31T01:21:05;101228.81;;;12.57;99.07
43770;BME280;6597;52.218;9.882;2022-10-31T01:23:32;101226.22;;;12.55;99.27
43770;BME280;6597;52.218;9.882;2022-10-31T01:26:05;101237.44;;;12.60;99.28
43770;BME280;6597;52.218;9.882;2022-10-31T01:28:32;101235.44;;;12.68;99.94
43770;BME280;6597;52.218;9.882;2022-10-31T01:31:03;101240.25;;;12.81;99.99
43770;BME280;6597;52.218;9.882;2022-10-31T01:33:33;101235.44;;;12.92;98.85
43770;BME280;6597;52.218;9.882;2022-10-31T01:35:59;101227.28;;;12.98;98.59
43770;BME280;6597;52.218;9.882;2022-10-31T01:38:27;101228.75;;;13.06;98.18
43770;BME280;6597;52.218;9.882;2022-10-31T01:40:54;101234.69;;;13.12;98.60
43770;BME280;6597;52.218;9.882;2022-10-31T01:43:20;101226.66;;;13.15;98.52
43770;BME280;6597;52.218;9.882;2022-10-31T01:45:51;101233.56;;;13.19;98.07
43770;BME280;6597;52.218;9.882;2022-10-31T01:48:21;101232.53;;;13.23;98.09
43770;BME280;6597;52.218;9.882;2022-10-31T01:50:51;101235.66;;;13.32;97.11
43770;BME280;6597;52.218;9.882;2022-10-31T01:53:20;101243.34;;;13.38;97.38
43770;BME280;6597;52.218;9.882;2022-10-31T01:55:49;101240.59;;;13.42;96.67
43770;BME280;6597;52.218;9.882;2022-10-31T01:58:19;101230.84;;;13.44;96.54
43770;BME280;6597;52.218;9.882;2022-10-31T02:00:49;101233.41;;;13.45;96.57
43770;BME280;6597;52.218;9.882;2022-10-31T02:03:18;101233.53;;;13.42;96.68
43770;BME280;6597;52.218;9.882;2022-10-31T02:05:46;101233.59;;;13.41;97.22
43770;BME280;6597;52.218;9.882;2022-10-31T02:08:16;101235.38;;;13.40;97.12
43770;BME280;6597;52.218;9.882;2022-10-31T02:10:49;101234.66;;;13.36;97.47
43770;BME280;6597;52.218;9.882;2022-10-31T02:13:16;101227.66;;;13.35;98.24
43770;BME280;6597;52.218;9.882;2022-10-31T02:15:49;101232.13;;;13.33;97.74
43770;BME280;6597;52.218;9.882;2022-10-31T02:18:18;101240.94;;;13.32;97.86
43770;BME280;6597;52.218;9.882;2022-10-31T02:20:54;101238.47;;;13.28;98.03
43770;BME280;6597;52.218;9.882;2022-10-31T02:27:01;101255.50;;;13.19;98.49
43770;BME280;6597;52.218;9.882;2022-10-31T02:32:27;101249.81;;;13.06;98.41
43770;BME280;6597;52.218;9.882;2022-10-31T02:34:59;101252.66;;;13.00;98.84
43770;BME280;6597;52.218;9.882;2022-10-31T02:37:36;101255.72;;;12.90;99.04
43770;BME280;6597;52.218;9.882;2022-10-31T02:40:11;101255.94;;;12.84;99.44
43770;BME280;6597;52.218;9.882;2022-10-31T02:43:05;101256.44;;;12.70;99.98
43770;BME280;6597;52.218;9.882;2022-10-31T02:45:38;101253.16;;;12.63;100.00
43770;BME280;6597;52.218;9.882;2022-10-31T02:48:10;101254.34;;;12.55;100.00
43770;BME280;6597;52.218;9.882;2022-10-31T02:50:43;101249.34;;;12.47;100.00
43770;BME280;6597;52.218;9.882;2022-10-31T02:53:14;101250.44;;;12.41;100.00
43770;BME280;6597;52.218;9.882;2022-10-31T02:55:51;101253.41;;;12.31;100.00
43770;BME280;6597;52.218;9.882;2022-10-31T02:58:26;101257.97;;;12.26;100.00
43770;BME280;6597;52.218;9.882;2022-10-31T03:01:04;101259.00;;;12.22;100.00
43770;BME280;6597;52.218;9.882;2022-10-31T03:03:44;101259.03;;;12.20;100.00
43770;BME280;6597;52.218;9.882;2022-10-31T03:06:20;101252.97;;;12.18;100.00
43770;BME280;6597;52.218;9.882;2022-10-31T03:08:55;101246.00;;;12.17;100.00
43770;BME280;6597;52.218;9.882;2022-10-31T03:11:31;101260.94;;;12.17;100.00
43770;BME280;6597;52.218;9.882;2022-10-31T03:14:03;101261.94;;;12.12;100.00
43770;BME280;6597;52.218;9.882;2022-10-31T03:16:39;101259.53;;;12.06;100.00
43770;BME280;6597;52.218;9.882;2022-10-31T03:19:11;101260.59;;;11.99;100.00
43770;BME280;6597;52.218;9.882;2022-10-31T03:21:42;101263.34;;;11.96;100.00
43770;BME280;6597;52.218;9.882;2022-10-31T03:24:11;101266.03;;;11.95;100.00
43770;BME280;6597;52.218;9.882;2022-10-31T03:26:43;101257.47;;;11.88;100.00
43770;BME280;6597;52.218;9.882;2022-10-31T03:29:14;101262.94;;;11.82;100.00
43770;BME280;6597;52.218;9.882;2022-10-31T03:31:46;101269.28;;;11.75;100.00
43770;BME280;6597;52.218;9.882;2022-10-31T03:34:17;101277.34;;;11.69;100.00
43770;BME280;6597;52.218;9.882;2022-10-31T03:36:46;101270.41;;;11.66;100.00
43770;BME280;6597;52.218;9.882;2022-10-31T03:39:17;101280.16;;;11.63;100.00
43770;BME280;6597;52.218;9.882;2022-10-31T03:41:49;101274.19;;;11.58;100.00
43770;BME280;6597;52.218;9.882;2022-10-31T03:44:21;101281.22;;;11.57;100.00
43770;BME280;6597;52.218;9.882;2022-10-31T03:46:57;101276.97;;;11.53;100.00
43770;BME280;6597;52.218;9.882;2022-10-31T03:49:25;101276.97;;;11.53;100.00
43770;BME280;6597;52.218;9.882;2022-10-31T03:51:57;101289.34;;;11.49;100.00
43770;BME280;6597;52.218;9.882;2022-10-31T03:54:28;101290.34;;;11.45;100.00
43770;BME280;6597;52.218;9.882;2022-10-31T03:57:03;101292.25;;;11.40;100.00
43770;BME280;6597;52.218;9.882;2022-10-31T03:59:35;101287.06;;;11.39;100.00
43770;BME280;6597;52.218;9.882;2022-10-31T04:02:05;101287.00;;;11.40;100.00
43770;BME280;6597;52.218;9.882;2022-10-31T04:04:35;101291.47;;;11.37;100.00
43770;BME280;6597;52.218;9.882;2022-10-31T04:07:05;101281.94;;;11.33;100.00
43770;BME280;6597;52.218;9.882;2022-10-31T04:09:36;101303.78;;;11.35;100.00
43770;BME280;6597;52.218;9.882;2022-10-31T04:12:06;101303.78;;;11.35;100.00
43770;BME280;6597;52.218;9.882;2022-10-31T04:14:53;101291.69;;;11.29;100.00
43770;BME280;6597;52.218;9.882;2022-10-31T04:17:23;101304.78;;;11.31;100.00
43770;BME280;6597;52.218;9.882;2022-10-31T04:19:58;101312.69;;;11.31;100.00
43770;BME280;6597;52.218;9.882;2022-10-31T04:22:25;101304.69;;;11.34;100.00
43770;BME280;6597;52.218;9.882;2022-10-31T04:24:52;101303.75;;;11.36;100.00
43770;BME280;6597;52.218;9.882;2022-10-31T04:27:18;101310.72;;;11.39;100.00
43770;BME280;6597;52.218;9.882;2022-10-31T04:29:45;101314.09;;;11.42;100.00
43770;BME280;6597;52.218;9.882;2022-10-31T04:32:11;101313.19;;;11.43;100.00
43770;BME280;6597;52.218;9.882;2022-10-31T04:34:38;101312.25;;;11.46;100.00
43770;BME280;6597;52.218;9.882;2022-10-31T04:37:06;101321.03;;;11.45;100.00
43770;BME280;6597;52.218;9.882;2022-10-31T04:39:33;101322.00;;;11.42;100.00
43770;BME280;6597;52.218;9.882;2022-10-31T04:42:19;101315.09;;;11.38;100.00
43770;BME280;6597;52.218;9.882;2022-10-31T04:44:46;101315.16;;;11.35;100.00
43770;BME280;6597;52.218;9.882;2022-10-31T04:47:13;101309.16;;;11.32;100.00
43770;BME280;6597;52.218;9.882;2022-10-31T04:49:40;101313.00;;;11.20;100.00
43770;BME280;6597;52.218;9.882;2022-10-31T04:52:08;101320.88;;;11.20;100.00
43770;BME280;6597;52.218;9.882;2022-10-31T04:54:35;101315.69;;;11.18;100.00
43770;BME280;6597;52.218;9.882;2022-10-31T04:57:24;101318.47;;;11.12;100.00
43770;BME280;6597;52.218;9.882;2022-10-31T04:59:51;101313.41;;;11.06;100.00
43770;BME280;6597;52.218;9.882;2022-10-31T05:02:17;101316.09;;;11.03;100.00
43770;BME280;6597;52.218;9.882;2022-10-31T05:04:51;101318.84;;;10.99;100.00
43770;BME280;6597;52.218;9.882;2022-10-31T05:07:19;101307.59;;;10.94;100.00
43770;BME280;6597;52.218;9.882;2022-10-31T05:09:46;101309.41;;;10.91;100.00
43770;BME280;6597;52.218;9.882;2022-10-31T05:12:13;101311.28;;;10.88;100.00
43770;BME280;6597;52.218;9.882;2022-10-31T05:15:11;101300.81;;;10.86;100.00
43770;BME280;6597;52.218;9.882;2022-10-31T05:17:58;101295.59;;;10.85;100.00
43770;BME280;6597;52.218;9.882;2022-10-31T05:20:48;101295.00;;;10.75;100.00
43770;BME280;6597;52.218;9.882;2022-10-31T05:23:26;101297.75;;;10.69;100.00
43770;BME280;6597;52.218;9.882;2022-10-31T05:25:53;101297.75;;;10.69;100.00
43770;BME280;6597;52.218;9.882;2022-10-31T05:28:19;101299.50;;;10.70;100.00
43770;BME280;6597;52.218;9.882;2022-10-31T05:30:46;101298.53;;;10.73;100.00
43770;BME280;6597;52.218;9.882;2022-10-31T05:33:14;101303.69;;;10.77;100.00
43770;BME280;6597;52.218;9.882;2022-10-31T05:36:08;101306.31;;;10.77;100.00
43770;BME280;6597;52.218;9.882;2022-10-31T05:38:41;101296.69;;;10.78;100.00
43770;BME280;6597;52.218;9.882;2022-10-31T05:41:12;101298.44;;;10.77;100.00
43770;BME280;6597;52.218;9.882;2022-10-31T05:43:43;101301.88;;;10.79;100.00
43770;BME280;6597;52.218;9.882;2022-10-31T05:46:09;101304.56;;;10.78;100.00
43770;BME280;6597;52.218;9.882;2022-10-31T05:49:05;101302.88;;;10.75;100.00
43770;BME280;6597;52.218;9.882;2022-10-31T05:51:58;101315.19;;;10.72;100.00
43770;BME280;6597;52.218;9.882;2022-10-31T05:54:34;101318.81;;;10.68;100.00
43770;BME280;6597;52.218;9.882;2022-10-31T05:57:01;101312.91;;;10.59;100.00
43770;BME280;6597;52.218;9.882;2022-10-31T05:59:27;101316.47;;;10.57;100.00
43770;BME280;6597;52.218;9.882;2022-10-31T06:01:54;101309.56;;;10.54;100.00
43770;BME280;6597;52.218;9.882;2022-10-31T06:04:44;101307.91;;;10.50;100.00
43770;BME280;6597;52.218;9.882;2022-10-31T06:07:11;101309.78;;;10.45;100.00
43770;BME280;6597;52.218;9.882;2022-10-31T06:09:38;101310.78;;;10.41;100.00
43770;BME280;6597;52.218;9.882;2022-10-31T06:12:06;101316.13;;;10.37;100.00
43770;BME280;6597;52.218;9.882;2022-10-31T06:15:02;101320.63;;;10.32;100.00
43770;BME280;6597;52.218;9.882;2022-10-31T06:17:28;101325.16;;;10.25;100.00
43770;BME280;6597;52.218;9.882;2022-10-31T06:20:15;101331.31;;;10.24;100.00
43770;BME280;6597;52.218;9.882;2022-10-31T06:22:52;101319.25;;;10.15;100.00
43770;BME280;6597;52.218;9.882;2022-10-31T06:25:20;101326.06;;;10.24;100.00
43770;BME280;6597;52.218;9.882;2022-10-31T06:27:48;101336.56;;;10.24;100.00
43770;BME280;6597;52.218;9.882;2022-10-31T06:30:15;101327.84;;;10.23;100.00
43770;BME280;6597;52.218;9.882;2022-10-31T06:32:44;101322.63;;;10.22;100.00
43770;BME280;6597;52.218;9.882;2022-10-31T06:35:10;101330.53;;;10.20;100.00
43770;BME280;6597;52.218;9.882;2022-10-31T06:37:39;101325.28;;;10.20;100.00
43770;BME280;6597;52.218;9.882;2022-10-31T06:40:23;101327.06;;;10.18;100.00
43770;BME280;6597;52.218;9.882;2022-10-31T06:43:09;101327.91;;;10.19;100.00
43770;BME280;6597;52.218;9.882;2022-10-31T06:45:36;101332.19;;;10.24;100.00
43770;BME280;6597;52.218;9.882;2022-10-31T06:48:29;101332.97;;;10.28;100.00
43770;BME280;6597;52.218;9.882;2022-10-31T06:51:18;101334.56;;;10.34;100.00
43770;BME280;6597;52.218;9.882;2022-10-31T06:53:45;101337.88;;;10.42;100.00
43770;BME280;6597;52.218;9.882;2022-10-31T06:56:14;101336.00;;;10.47;100.00
43770;BME280;6597;52.218;9.882;2022-10-31T06:58:47;101337.59;;;10.52;100.00
43770;BME280;6597;52.218;9.882;2022-10-31T07:01:16;101331.28;;;10.59;100.00
43770;BME280;6597;52.218;9.882;2022-10-31T07:03:43;101332.72;;;10.71;100.00
43770;BME280;6597;52.218;9.882;2022-10-31T07:06:09;101344.69;;;10.83;100.00
43770;BME280;6597;52.218;9.882;2022-10-31T07:08:37;101344.25;;;10.98;100.00
43770;BME280;6597;52.218;9.882;2022-10-31T07:11:04;101350.75;;;11.17;100.00
43770;BME280;6597;52.218;9.882;2022-10-31T07:13:33;101364.25;;;11.35;100.00
43770;BME280;6597;52.218;9.882;2022-10-31T07:16:05;101361.34;;;11.45;100.00
43770;BME280;6597;52.218;9.882;2022-10-31T07:18:34;101363.16;;;11.43;100.00
43770;BME280;6597;52.218;9.882;2022-10-31T07:21:00;101356.94;;;11.46;100.00
43770;BME280;6597;52.218;9.882;2022-10-31T07:23:27;101366.50;;;11.48;100.00
43770;BME280;6597;52.218;9.882;2022-10-31T07:26:14;101363.78;;;11.51;100.00
43770;BME280;6597;52.218;9.882;2022-10-31T07:28:47;101366.38;;;11.53;100.00
43770;BME280;6597;52.218;9.882;2022-10-31T07:31:16;101364.53;;;11.55;100.00
43770;BME280;6597;52.218;9.882;2022-10-31T07:33:42;101365.31;;;11.59;100.00
43770;BME280;6597;52.218;9.882;2022-10-31T07:36:27;101360.88;;;11.61;100.00
43770;BME280;6597;52.218;9.882;2022-10-31T07:39:00;101361.97;;;11.53;100.00
43770;BME280;6597;52.218;9.882;2022-10-31T07:41:27;101362.00;;;11.52;100.00
43770;BME280;6597;52.218;9.882;2022-10-31T07:43:55;101361.19;;;11.50;100.00
43770;BME280;6597;52.218;9.882;2022-10-31T07:46:40;101361.09;;;11.53;100.00
43770;BME280;6597;52.218;9.882;2022-10-31T07:49:26;101362.81;;;11.54;100.00
43770;BME280;6597;52.218;9.882;2022-10-31T07:52:11;101365.50;;;11.52;100.00
43770;BME280;6597;52.218;9.882;2022-10-31T07:54:58;101368.09;;;11.54;100.00
43770;BME280;6597;52.218;9.882;2022-10-31T07:57:25;101378.47;;;11.59;100.00
43770;BME280;6597;52.218;9.882;2022-10-31T07:59:52;101377.22;;;11.70;100.00
43770;BME280;6597;52.218;9.882;2022-10-31T08:02:19;101386.53;;;11.83;100.00
43770;BME280;6597;52.218;9.882;2022-10-31T08:04:46;101375.63;;;11.96;100.00
43770;BME280;6597;52.218;9.882;2022-10-31T08:07:28;101372.31;;;12.17;100.00
43770;BME280;6597;52.218;9.882;2022-10-31T08:10:00;101375.03;;;12.42;100.00
43770;BME280;6597;52.218;9.882;2022-10-31T08:12:29;101378.81;;;12.60;100.00
43770;BME280;6597;52.218;9.882;2022-10-31T08:14:58;101377.56;;;12.71;100.00
43770;BME280;6597;52.218;9.882;2022-10-31T08:17:25;101374.72;;;12.77;100.00
43770;BME280;6597;52.218;9.882;2022-10-31T08:19:57;101372.78;;;12.83;100.00
43770;BME280;6597;52.218;9.882;2022-10-31T08:22:31;101373.63;;;12.83;100.00
43770;BME280;6597;52.218;9.882;2022-10-31T08:24:58;101373.63;;;12.83;100.00
43770;BME280;6597;52.218;9.882;2022-10-31T08:27:26;101372.72;;;12.84;100.00
43770;BME280;6597;52.218;9.882;2022-10-31T08:29:55;101372.66;;;12.86;100.00
43770;BME280;6597;52.218;9.882;2022-10-31T08:32:23;101363.84;;;12.87;100.00
43770;BME280;6597;52.218;9.882;2022-10-31T08:35:08;101362.81;;;12.91;100.00
43770;BME280;6597;52.218;9.882;2022-10-31T08:37:41;101369.53;;;12.99;100.00
43770;BME280;6597;52.218;9.882;2022-10-31T08:40:09;101353.13;;;13.16;100.00
43770;BME280;6597;52.218;9.882;2022-10-31T08:42:36;101356.56;;;13.43;100.00
43770;BME280;6597;52.218;9.882;2022-10-31T08:45:04;101349.72;;;13.84;100.00
43770;BME280;6597;52.218;9.882;2022-10-31T08:47:33;101342.28;;;14.38;99.33
43770;BME280;6597;52.218;9.882;2022-10-31T08:49:59;101331.84;;;14.97;96.10
43770;BME280;6597;52.218;9.882;2022-10-31T08:52:26;101336.47;;;15.50;90.14
43770;BME280;6597;52.218;9.882;2022-10-31T08:54:59;101348.31;;;15.99;86.06
43770;BME280;6597;52.218;9.882;2022-10-31T08:57:56;101326.88;;;16.40;83.04
43770;BME280;6597;52.218;9.882;2022-10-31T09:00:26;101344.91;;;16.85;81.66
43770;BME280;6597;52.218;9.882;2022-10-31T09:03:03;101337.19;;;17.31;79.95
43770;BME280;6597;52.218;9.882;2022-10-31T09:05:32;101329.97;;;17.82;78.19
43770;BME280;6597;52.218;9.882;2022-10-31T09:08:00;101336.78;;;18.33;76.31
43770;BME280;6597;52.218;9.882;2022-10-31T09:10:27;101334.25;;;18.76;72.62
43770;BME280;6597;52.218;9.882;2022-10-31T09:12:55;101340.09;;;19.11;70.53
43770;BME280;6597;52.218;9.882;2022-10-31T09:15:49;101327.69;;;19.25;70.12
43770;BME280;6597;52.218;9.882;2022-10-31T09:18:24;101338.78;;;19.32;69.67
43770;BME280;6597;52.218;9.882;2022-10-31T09:20:59;101335.84;;;19.22;69.81
43770;BME280;6597;52.218;9.882;2022-10-31T09:23:29;101331.28;;;19.24;70.27
43770;BME280;6597;52.218;9.882;2022-10-31T09:25:59;101331.84;;;19.44;69.50
43770;BME280;6597;52.218;9.882;2022-10-31T09:28:44;101321.63;;;19.79;68.93
43770;BME280;6597;52.218;9.882;2022-10-31T09:31:13;101333.81;;;20.10;66.58
43770;BME280;6597;52.218;9.882;2022-10-31T09:34:01;101326.44;;;20.28;66.18
43770;BME280;6597;52.218;9.882;2022-10-31T09:36:43;101328.63;;;20.48;64.80
43770;BME280;6597;52.218;9.882;2022-10-31T09:39:18;101332.41;;;20.71;64.44
43770;BME280;6597;52.218;9.882;2022-10-31T09:42:03;101330.84;;;20.94;64.40
43770;BME280;6597;52.218;9.882;2022-10-31T09:44:43;101328.28;;;21.05;63.67
43770;BME280;6597;52.218;9.882;2022-10-31T09:47:28;101322.09;;;21.17;64.01
43770;BME280;6597;52.218;9.882;2022-10-31T09:50:22;101320.28;;;21.18;63.61
43770;BME280;6597;52.218;9.882;2022-10-31T09:52:57;101318.97;;;21.10;64.14
43770;BME280;6597;52.218;9.882;2022-10-31T09:55:31;101323.16;;;20.89;64.77
43770;BME280;6597;52.218;9.882;2022-10-31T09:58:01;101319.41;;;20.79;64.79
43770;BME280;6597;52.218;9.882;2022-10-31T10:00:29;101319.59;;;20.63;65.74
43770;BME280;6597;52.218;9.882;2022-10-31T10:03:00;101320.25;;;20.67;67.04
43770;BME280;6597;52.218;9.882;2022-10-31T10:05:34;101311.28;;;20.80;65.36
43770;BME280;6597;52.218;9.882;2022-10-31T10:08:09;101310.66;;;20.90;64.82
43770;BME280;6597;52.218;9.882;2022-10-31T10:11:19;101306.91;;;20.79;65.89
43770;BME280;6597;52.218;9.882;2022-10-31T10:14:23;101306.06;;;20.66;66.13
43770;BME280;6597;52.218;9.882;2022-10-31T10:17:08;101307.13;;;20.64;66.44
43770;BME280;6597;52.218;9.882;2022-10-31T10:20:10;101310.63;;;20.77;66.60
43770;BME280;6597;52.218;9.882;2022-10-31T10:22:45;101309.72;;;20.91;66.40
43770;BME280;6597;52.218;9.882;2022-10-31T10:25:20;101307.03;;;20.91;65.63
43770;BME280;6597;52.218;9.882;2022-10-31T10:27:59;101312.13;;;20.81;66.39
43770;BME280;6597;52.218;9.882;2022-10-31T10:30:34;101302.88;;;20.87;66.41
43770;BME280;6597;52.218;9.882;2022-10-31T10:33:04;101298.72;;;20.95;66.82
43770;BME280;6597;52.218;9.882;2022-10-31T10:35:39;101295.41;;;20.92;66.15
43770;BME280;6597;52.218;9.882;2022-10-31T10:38:16;101294.63;;;21.02;66.25
43770;BME280;6597;52.218;9.882;2022-10-31T10:40:43;101279.16;;;21.20;65.64
43770;BME280;6597;52.218;9.882;2022-10-31T10:43:19;101277.00;;;21.12;65.26
43770;BME280;6597;52.218;9.882;2022-10-31T10:45:49;101274.34;;;21.00;66.54
43770;BME280;6597;52.218;9.882;2022-10-31T10:48:43;101278.97;;;20.85;65.70
43770;BME280;6597;52.218;9.882;2022-10-31T10:51:21;101279.06;;;20.71;66.56
43770;BME280;6597;52.218;9.882;2022-10-31T10:54:00;101271.81;;;20.86;66.78
43770;BME280;6597;52.218;9.882;2022-10-31T10:56:39;101273.41;;;20.75;65.83
43770;BME280;6597;52.218;9.882;2022-10-31T10:59:09;101265.91;;;20.80;66.07
43770;BME280;6597;52.218;9.882;2022-10-31T11:01:38;101258.34;;;21.00;66.69
43770;BME280;6597;52.218;9.882;2022-10-31T11:04:21;101252.19;;;20.87;66.26
43770;BME280;6597;52.218;9.882;2022-10-31T11:06:57;101254.22;;;20.83;67.42
43770;BME280;6597;52.218;9.882;2022-10-31T11:09:25;101252.19;;;20.87;67.14
43770;BME280;6597;52.218;9.882;2022-10-31T11:11:52;101248.97;;;20.81;67.87
43770;BME280;6597;52.218;9.882;2022-10-31T11:14:20;101245.66;;;20.91;67.67
43770;BME280;6597;52.218;9.882;2022-10-31T11:16:48;101239.78;;;20.98;66.80
43770;BME280;6597;52.218;9.882;2022-10-31T11:19:17;101234.41;;;21.11;65.75
43770;BME280;6597;52.218;9.882;2022-10-31T11:21:45;101230.78;;;21.25;65.02
43770;BME280;6597;52.218;9.882;2022-10-31T11:24:15;101225.28;;;21.39;63.25
43770;BME280;6597;52.218;9.882;2022-10-31T11:26:45;101230.09;;;21.47;64.06
43770;BME280;6597;52.218;9.882;2022-10-31T11:29:19;101224.06;;;21.56;63.89
43770;BME280;6597;52.218;9.882;2022-10-31T11:31:46;101221.56;;;21.65;64.29
43770;BME280;6597;52.218;9.882;2022-10-31T11:34:20;101226.94;;;21.77;64.00
43770;BME280;6597;52.218;9.882;2022-10-31T11:36:49;101223.53;;;21.74;63.85
43770;BME280;6597;52.218;9.882;2022-10-31T11:39:18;101222.19;;;21.93;64.41
43770;BME280;6597;52.218;9.882;2022-10-31T11:41:48;101217.22;;;21.99;62.03
43770;BME280;6597;52.218;9.882;2022-10-31T11:44:17;101217.41;;;21.85;61.35
43770;BME280;6597;52.218;9.882;2022-10-31T11:46:47;101215.28;;;22.01;59.95
43770;BME280;6597;52.218;9.882;2022-10-31T11:49:17;101216.84;;;21.93;60.14
43770;BME280;6597;52.218;9.882;2022-10-31T11:51:48;101214.06;;;21.47;60.84
43770;BME280;6597;52.218;9.882;2022-10-31T11:54:21;101201.78;;;21.68;61.67
43770;BME280;6597;52.218;9.882;2022-10-31T11:56:50;101200.88;;;21.56;61.83
43770;BME280;6597;52.218;9.882;2022-10-31T11:59:28;101199.38;;;21.28;64.39
43770;BME280;6597;52.218;9.882;2022-10-31T12:01:56;101201.41;;;21.12;64.98
43770;BME280;6597;52.218;9.882;2022-10-31T12:04:29;101194.56;;;21.08;64.38
43770;BME280;6597;52.218;9.882;2022-10-31T12:06:57;101194.50;;;20.97;65.67
43770;BME280;6597;52.218;9.882;2022-10-31T12:09:26;101196.84;;;21.01;66.70
43770;BME280;6597;52.218;9.882;2022-10-31T12:14:59;101190.38;;;20.42;70.57
43770;BME280;6597;52.218;9.882;2022-10-31T12:17:31;101182.34;;;20.16;71.66
43770;BME280;6597;52.218;9.882;2022-10-31T12:20:10;101184.13;;;19.91;73.24
43770;BME280;6597;52.218;9.882;2022-10-31T12:22:47;101182.97;;;19.68;74.21
43770;BME280;6597;52.218;9.882;2022-10-31T12:25:25;101176.84;;;19.53;75.38
43770;BME280;6597;52.218;9.882;2022-10-31T12:28:03;101171.13;;;19.45;75.74
43770;BME280;6597;52.218;9.882;2022-10-31T12:30:46;101169.31;;;19.45;75.96
43770;BME280;6597;52.218;9.882;2022-10-31T12:33:26;101165.50;;;19.49;76.07
43770;BME280;6597;52.218;9.882;2022-10-31T12:36:02;101165.59;;;19.62;75.17
43770;BME280;6597;52.218;9.882;2022-10-31T12:38:53;101160.72;;;19.69;74.96
43770;BME280;6597;52.218;9.882;2022-10-31T12:41:39;101160.50;;;19.72;74.87
43770;BME280;6597;52.218;9.882;2022-10-31T12:44:24;101154.53;;;19.81;75.18
43770;BME280;6597;52.218;9.882;2022-10-31T12:47:10;101150.25;;;19.66;74.29
43770;BME280;6597;52.218;9.882;2022-10-31T12:49:50;101139.59;;;19.66;75.18
43770;BME280;6597;52.218;9.882;2022-10-31T12:52:35;101142.81;;;19.71;75.86
43770;BME280;6597;52.218;9.882;2022-10-31T12:55:16;101132.47;;;19.79;74.99
43770;BME280;6597;52.218;9.882;2022-10-31T12:57:48;101138.50;;;19.95;74.63
43770;BME280;6597;52.218;9.882;2022-10-31T13:00:19;101130.06;;;19.88;73.51
43770;BME280;6597;52.218;9.882;2022-10-31T13:02:50;101128.84;;;19.67;74.75
43770;BME280;6597;52.218;9.882;2022-10-31T13:05:20;101127.66;;;19.58;75.58
43770;BME280;6597;52.218;9.882;2022-10-31T13:07:52;101122.22;;;19.60;75.23
43770;BME280;6597;52.218;9.882;2022-10-31T13:10:22;101122.13;;;19.62;75.12
43770;BME280;6597;52.218;9.882;2022-10-31T13:12:54;101113.81;;;19.53;75.29
43770;BME280;6597;52.218;9.882;2022-10-31T13:15:27;101099.53;;;19.54;75.36
43770;BME280;6597;52.218;9.882;2022-10-31T13:17:56;101110.94;;;19.69;75.31
43770;BME280;6597;52.218;9.882;2022-10-31T13:20:27;101112.44;;;19.73;75.30
43770;BME280;6597;52.218;9.882;2022-10-31T13:23:00;101103.53;;;19.87;74.01
43770;BME280;6597;52.218;9.882;2022-10-31T13:25:33;101096.81;;;19.94;73.32
43770;BME280;6597;52.218;9.882;2022-10-31T13:28:05;101090.09;;;20.01;73.58
43770;BME280;6597;52.218;9.882;2022-10-31T13:30:39;101089.25;;;20.01;72.74
43770;BME280;6597;52.218;9.882;2022-10-31T13:33:12;101097.47;;;19.98;73.06
43770;BME280;6597;52.218;9.882;2022-10-31T13:35:45;101083.50;;;19.94;73.58